Dobbin, Texas
Current Conditions -  °F | °C
As of 9:53 PM on Friday 19 Dec 2014 (Local Time) from KCXO Reporting Station
Overcast Overcast  
Wind Chill: 11°   Ceiling: 600
Heat Index: 11°   Visibility: 9mi
Dew Point:   Wind: 6mph
Humidity: 92%   Direction: 350°N
Pressure: 30.14"   Gusts: NA
Location:  30.37°N, 95.78°W
Report Text: KCXO 200353Z AUTO 35005KT 9SM OVC006 11/09 A3014 RMK AO2 SLP207 T01060094
Loading
Personal Weather Stations






























Interactive Weather Map New forecast layout! Learn more

10-Day Weather Forecast

Advertisements
Track Severe Weather on mobile